createdAt,value
2022-12-18T00:01:16.644Z,-1.11
2022-12-18T00:03:43.916Z,-1.07
2022-12-18T00:06:11.167Z,-1.11
2022-12-18T00:08:37.766Z,-1.31
2022-12-18T00:11:09.214Z,-1.34
2022-12-18T00:13:36.503Z,-1.37
2022-12-18T00:16:04.746Z,-1.42
2022-12-18T00:18:31.938Z,-1.45
2022-12-18T00:21:01.630Z,-1.48
2022-12-18T00:23:28.967Z,-1.63
2022-12-18T00:25:55.936Z,-1.72
2022-12-18T00:28:22.588Z,-1.90
2022-12-18T00:30:52.357Z,-1.98
2022-12-18T00:33:19.052Z,-2.03
2022-12-18T00:35:45.632Z,-2.08
2022-12-18T00:38:12.169Z,-2.23
2022-12-18T00:40:38.760Z,-2.19
2022-12-18T00:43:05.332Z,-2.34
2022-12-18T00:45:32.232Z,-2.30
2022-12-18T00:47:58.944Z,-2.24
2022-12-18T00:50:25.978Z,-2.30
2022-12-18T00:52:52.782Z,-2.33
2022-12-18T00:55:19.924Z,-2.34
2022-12-18T00:57:47.249Z,-2.46
2022-12-18T01:00:15.773Z,-2.55
2022-12-18T01:02:43.409Z,-2.38
2022-12-18T01:05:11.628Z,-2.61
2022-12-18T01:07:38.415Z,-2.72
2022-12-18T01:10:06.184Z,-2.61
2022-12-18T01:12:36.648Z,-2.62
2022-12-18T01:15:03.877Z,-2.72
2022-12-18T01:17:30.449Z,-2.81
2022-12-18T01:19:57.799Z,-2.77
2022-12-18T01:22:24.556Z,-2.78
2022-12-18T01:24:51.238Z,-2.90
2022-12-18T01:27:17.826Z,-2.90
2022-12-18T01:29:44.453Z,-2.84
2022-12-18T01:32:11.087Z,-2.92
2022-12-18T01:34:37.995Z,-2.83
2022-12-18T01:37:05.693Z,-2.91
2022-12-18T01:39:35.528Z,-3.17
2022-12-18T01:42:11.582Z,-3.10
2022-12-18T01:45:27.333Z,-3.05
2022-12-18T01:48:00.295Z,-3.13
2022-12-18T01:50:39.964Z,-3.15
2022-12-18T01:53:22.386Z,-3.23
2022-12-18T01:55:57.481Z,-3.33
2022-12-18T01:58:33.453Z,-3.35
2022-12-18T02:01:00.138Z,-3.47
2022-12-18T02:03:26.867Z,-3.40
2022-12-18T02:06:25.615Z,-3.46
2022-12-18T02:09:15.103Z,-3.46
2022-12-18T02:11:48.386Z,-3.40
2022-12-18T02:14:29.402Z,-3.50
2022-12-18T02:17:06.989Z,-3.52
2022-12-18T02:19:36.676Z,-3.72
2022-12-18T02:22:28.888Z,-3.78
2022-12-18T02:25:14.783Z,-3.96
2022-12-18T02:27:42.731Z,-4.13
2022-12-18T02:30:09.690Z,-4.15
2022-12-18T02:32:44.805Z,-4.19
2022-12-18T02:35:18.307Z,-4.25
2022-12-18T02:37:48.222Z,-4.28
2022-12-18T02:40:16.017Z,-4.36
2022-12-18T02:42:42.689Z,-4.38
2022-12-18T02:45:11.426Z,-4.32
2022-12-18T02:47:40.732Z,-4.32
2022-12-18T02:50:43.556Z,-4.31
2022-12-18T02:53:36.711Z,-4.33
2022-12-18T02:56:17.044Z,-4.27
2022-12-18T02:59:06.956Z,-4.39
2022-12-18T03:02:24.814Z,-4.45
2022-12-18T03:05:16.492Z,-4.58
2022-12-18T03:07:54.636Z,-4.61
2022-12-18T03:10:26.287Z,-4.65
2022-12-18T03:12:57.562Z,-4.76
2022-12-18T03:15:29.424Z,-4.85
2022-12-18T03:18:07.158Z,-4.70
2022-12-18T03:20:35.560Z,-4.78
2022-12-18T03:23:14.489Z,-4.82
2022-12-18T03:25:50.448Z,-4.81
2022-12-18T03:28:21.333Z,-4.90
2022-12-18T03:30:55.972Z,-4.91
2022-12-18T03:33:29.972Z,-4.96
2022-12-18T03:35:57.809Z,-5.04
2022-12-18T03:38:24.586Z,-5.04
2022-12-18T03:40:59.714Z,-5.06
2022-12-18T03:43:34.797Z,-5.09
2022-12-18T03:46:25.452Z,-5.05
2022-12-18T03:49:00.252Z,-5.12
2022-12-18T03:51:51.274Z,-5.00
2022-12-18T03:54:18.897Z,-5.08
2022-12-18T03:57:00.792Z,-5.06
2022-12-18T03:59:30.116Z,-5.08
2022-12-18T04:01:59.115Z,-5.11
2022-12-18T04:04:27.797Z,-5.28
2022-12-18T04:06:55.229Z,-5.28
2022-12-18T04:09:22.898Z,-5.29
2022-12-18T04:11:52.563Z,-5.30
2022-12-18T04:14:19.130Z,-5.34
2022-12-18T04:16:49.723Z,-5.32
2022-12-18T04:19:18.672Z,-5.35
2022-12-18T04:21:48.162Z,-5.37
2022-12-18T04:24:14.966Z,-5.41
2022-12-18T04:26:50.027Z,-5.53
2022-12-18T04:29:18.779Z,-5.50
2022-12-18T04:31:45.441Z,-5.55
2022-12-18T04:34:12.403Z,-5.56
2022-12-18T04:36:44.642Z,-5.51
2022-12-18T04:39:11.309Z,-5.39
2022-12-18T04:41:37.965Z,-5.37
2022-12-18T04:44:05.643Z,-5.41
2022-12-18T04:46:32.267Z,-5.57
2022-12-18T04:48:58.895Z,-5.54
2022-12-18T04:51:26.825Z,-5.46
2022-12-18T04:53:54.580Z,-5.59
2022-12-18T04:56:21.279Z,-5.63
2022-12-18T04:58:47.891Z,-5.67
2022-12-18T05:01:15.788Z,-5.68
2022-12-18T05:03:43.582Z,-5.69
2022-12-18T05:06:10.853Z,-5.74
2022-12-18T05:08:37.485Z,-5.79
2022-12-18T05:11:06.978Z,-5.86
2022-12-18T05:13:33.938Z,-5.72
2022-12-18T05:16:00.885Z,-5.80
2022-12-18T05:18:27.533Z,-5.83
2022-12-18T05:20:54.855Z,-5.86
2022-12-18T05:23:22.476Z,-5.82
2022-12-18T05:25:56.415Z,-5.88
2022-12-18T05:28:24.094Z,-5.91
2022-12-18T05:30:52.154Z,-5.91
2022-12-18T05:33:23.722Z,-5.90
2022-12-18T05:35:54.996Z,-6.04
2022-12-18T05:38:22.646Z,-6.17
2022-12-18T05:40:49.813Z,-6.11
2022-12-18T05:43:21.225Z,-6.11
2022-12-18T05:45:48.853Z,-6.01
2022-12-18T05:48:16.275Z,-6.10
2022-12-18T05:50:44.932Z,-6.13
2022-12-18T05:53:11.608Z,-6.17
2022-12-18T05:55:40.542Z,-6.21
2022-12-18T05:58:08.271Z,-6.19
2022-12-18T06:00:36.833Z,-6.24
2022-12-18T06:03:03.716Z,-6.27
2022-12-18T06:05:30.399Z,-6.20
2022-12-18T06:07:56.981Z,-6.29
2022-12-18T06:10:23.541Z,-6.24
2022-12-18T06:12:50.075Z,-6.32
2022-12-18T06:15:16.665Z,-6.30
2022-12-18T06:17:43.566Z,-6.27
2022-12-18T06:20:11.278Z,-6.40
2022-12-18T06:22:37.823Z,-6.47
2022-12-18T06:25:04.945Z,-6.55
2022-12-18T06:27:31.523Z,-6.55
2022-12-18T06:29:58.200Z,-6.40
2022-12-18T06:32:24.779Z,-6.41
2022-12-18T06:34:51.353Z,-6.55
2022-12-18T06:37:17.946Z,-6.65
2022-12-18T06:39:44.512Z,-6.65
2022-12-18T06:42:11.135Z,-6.70
2022-12-18T06:44:37.714Z,-6.52
2022-12-18T06:47:04.303Z,-6.56
2022-12-18T06:49:30.931Z,-6.55
2022-12-18T06:51:57.489Z,-6.44
2022-12-18T06:54:24.038Z,-6.39
2022-12-18T06:56:50.590Z,-6.51
2022-12-18T06:59:17.658Z,-6.53
2022-12-18T07:01:44.492Z,-6.49
2022-12-18T07:04:11.190Z,-6.51
2022-12-18T07:06:37.739Z,-6.49
2022-12-18T07:09:04.411Z,-6.40
2022-12-18T07:11:33.765Z,-6.39
2022-12-18T07:14:00.474Z,-6.34
2022-12-18T07:16:29.343Z,-6.29
2022-12-18T07:18:56.733Z,-6.12
2022-12-18T07:21:24.873Z,-6.05
2022-12-18T07:23:51.420Z,-6.05
2022-12-18T07:26:19.914Z,-6.03
2022-12-18T07:28:46.983Z,-5.97
2022-12-18T07:31:16.868Z,-5.89
2022-12-18T07:33:43.981Z,-5.81
2022-12-18T07:36:10.909Z,-5.77
2022-12-18T07:38:37.613Z,-5.68
2022-12-18T07:41:12.201Z,-5.53
2022-12-18T07:43:40.091Z,-5.48
2022-12-18T07:46:07.739Z,-5.45
2022-12-18T07:48:34.516Z,-5.36
2022-12-18T07:51:01.815Z,-5.22
2022-12-18T07:53:28.666Z,-5.14
2022-12-18T07:56:31.909Z,-5.06
2022-12-18T07:58:50.715Z,-4.98
2022-12-18T08:01:17.452Z,-4.90
2022-12-18T08:03:44.242Z,-4.85
2022-12-18T08:06:11.655Z,-4.74
2022-12-18T08:08:38.219Z,-4.72
2022-12-18T08:11:04.986Z,-4.67
2022-12-18T08:13:31.745Z,-4.55
2022-12-18T08:16:03.473Z,-4.46
2022-12-18T08:18:30.298Z,-4.40
2022-12-18T08:20:57.122Z,-4.31
2022-12-18T08:23:26.448Z,-4.12
2022-12-18T08:25:55.199Z,-4.12
2022-12-18T08:28:21.802Z,-4.04
2022-12-18T08:30:53.036Z,-4.03
2022-12-18T08:33:19.943Z,-3.98
2022-12-18T08:35:46.545Z,-3.93
2022-12-18T08:38:13.126Z,-3.84
2022-12-18T08:40:39.660Z,-3.74
2022-12-18T08:43:25.125Z,-3.61
2022-12-18T08:45:51.779Z,-3.53
2022-12-18T08:48:22.186Z,-3.48
2022-12-18T08:50:59.564Z,-3.49
2022-12-18T08:53:30.277Z,-3.39
2022-12-18T08:55:59.399Z,-3.25
2022-12-18T08:58:25.972Z,-3.17
2022-12-18T09:00:52.587Z,-3.07
2022-12-18T09:03:20.878Z,-2.96
2022-12-18T09:05:49.087Z,-2.94
2022-12-18T09:08:15.690Z,-2.87
2022-12-18T09:10:44.348Z,-2.81
2022-12-18T09:13:11.890Z,-2.76
2022-12-18T09:15:46.360Z,-2.72
2022-12-18T09:18:13.975Z,-2.67
2022-12-18T09:20:40.544Z,-2.54
2022-12-18T09:23:07.820Z,-2.50
2022-12-18T09:25:36.710Z,-2.40
2022-12-18T09:28:05.593Z,-2.28
2022-12-18T09:30:34.382Z,-2.11
2022-12-18T09:33:01.567Z,-1.97
2022-12-18T09:35:28.852Z,-1.87
2022-12-18T09:37:55.732Z,-1.74
2022-12-18T09:40:26.363Z,-1.69
2022-12-18T09:42:56.514Z,-1.69
2022-12-18T09:45:23.732Z,-1.71
2022-12-18T09:47:51.752Z,-1.64
2022-12-18T09:50:24.840Z,-1.56
2022-12-18T09:52:54.655Z,-1.60
2022-12-18T09:55:37.341Z,-1.49
2022-12-18T09:58:14.335Z,-1.55
2022-12-18T10:00:42.521Z,-1.52
2022-12-18T10:03:14.120Z,-1.42
2022-12-18T10:05:43.498Z,-1.29
2022-12-18T10:08:12.646Z,-1.27
2022-12-18T10:10:45.060Z,-1.14
2022-12-18T10:13:21.330Z,-1.16
2022-12-18T10:16:16.276Z,-0.93
2022-12-18T10:19:01.175Z,-0.79
2022-12-18T10:21:39.673Z,-0.80
2022-12-18T10:24:19.771Z,-1.17
2022-12-18T10:26:54.510Z,-1.30
2022-12-18T10:29:21.126Z,-1.15
2022-12-18T10:31:47.697Z,-1.61
2022-12-18T10:34:15.661Z,-1.48
2022-12-18T10:36:42.327Z,-1.51
2022-12-18T10:39:21.189Z,-1.41
2022-12-18T10:41:47.832Z,-1.19
2022-12-18T10:44:21.424Z,-1.17
2022-12-18T10:46:50.757Z,-0.92
2022-12-18T10:49:26.676Z,-0.67
2022-12-18T10:52:08.715Z,-0.69
2022-12-18T10:54:36.072Z,-0.45
2022-12-18T10:57:16.851Z,-0.50
2022-12-18T10:59:54.723Z,-0.34
2022-12-18T11:02:31.401Z,-0.37
2022-12-18T11:04:58.224Z,-0.37
2022-12-18T11:07:24.928Z,-0.23
2022-12-18T11:10:04.185Z,-0.68
2022-12-18T11:12:30.908Z,-0.96
2022-12-18T11:15:01.065Z,-1.35
2022-12-18T11:17:36.504Z,-1.44
2022-12-18T11:20:27.970Z,-1.03
2022-12-18T11:23:11.657Z,-1.70
2022-12-18T11:25:39.243Z,-1.84
2022-12-18T11:28:29.160Z,-1.87
2022-12-18T11:31:13.843Z,-1.66
2022-12-18T11:33:58.479Z,-1.48
2022-12-18T11:36:34.365Z,-1.80
2022-12-18T11:39:07.200Z,-1.78
2022-12-18T11:42:05.972Z,-1.77
2022-12-18T11:44:42.006Z,-1.97
2022-12-18T11:47:16.777Z,-2.25
2022-12-18T11:49:43.698Z,-2.31
2022-12-18T11:52:26.694Z,-1.91
2022-12-18T11:55:00.089Z,-1.63
2022-12-18T11:58:04.193Z,-1.32
2022-12-18T12:00:31.153Z,-1.14
2022-12-18T12:03:06.516Z,-0.94
2022-12-18T12:06:01.169Z,-0.84
2022-12-18T12:08:33.918Z,-0.77
2022-12-18T12:11:16.561Z,-0.78
2022-12-18T12:13:53.377Z,-1.07
2022-12-18T12:16:31.364Z,-1.30
2022-12-18T12:19:05.074Z,-1.36
2022-12-18T12:21:44.279Z,-1.39
2022-12-18T12:24:26.958Z,-1.41
2022-12-18T12:26:57.798Z,-1.21
2022-12-18T12:29:27.833Z,-1.01
2022-12-18T12:32:15.653Z,-1.43
2022-12-18T12:35:09.600Z,-1.36
2022-12-18T12:38:01.023Z,-1.15
2022-12-18T12:43:43.462Z,-1.37
2022-12-18T12:46:17.485Z,-1.57
2022-12-18T12:48:54.126Z,-1.44
2022-12-18T12:51:22.988Z,-1.18
2022-12-18T12:53:50.349Z,-1.23
2022-12-18T12:56:19.963Z,-1.25
2022-12-18T12:59:18.152Z,-1.29
2022-12-18T13:01:54.851Z,-1.20
2022-12-18T13:04:27.560Z,-1.10
2022-12-18T13:07:07.624Z,-1.22
2022-12-18T13:09:36.967Z,-1.04
2022-12-18T13:12:29.593Z,-1.10
2022-12-18T13:15:40.836Z,-1.37
2022-12-18T13:18:10.209Z,-1.22
2022-12-18T13:20:38.400Z,-1.38
2022-12-18T13:23:27.747Z,-1.23
2022-12-18T13:26:29.609Z,-1.16
2022-12-18T13:28:57.442Z,-1.25
2022-12-18T13:31:42.682Z,-1.39
2022-12-18T13:34:26.889Z,-1.36
2022-12-18T13:36:56.757Z,-1.19
2022-12-18T13:39:30.267Z,-1.19
2022-12-18T13:42:07.178Z,-1.27
2022-12-18T13:44:40.857Z,-1.35
2022-12-18T13:47:26.691Z,-1.30
2022-12-18T13:49:53.750Z,-1.19
2022-12-18T13:52:24.244Z,-1.46
2022-12-18T13:55:01.026Z,-1.38
2022-12-18T13:57:45.599Z,-1.62
2022-12-18T14:00:19.861Z,-1.82
2022-12-18T14:02:47.099Z,-1.50
2022-12-18T14:05:35.525Z,-2.00
2022-12-18T14:08:13.977Z,-1.95
2022-12-18T14:10:48.628Z,-1.88
2022-12-18T14:13:29.954Z,-2.26
2022-12-18T14:15:56.845Z,-2.28
2022-12-18T14:18:27.781Z,-2.25
2022-12-18T14:21:04.351Z,-2.26
2022-12-18T14:23:43.026Z,-2.17
2022-12-18T14:26:30.536Z,-2.15
2022-12-18T14:28:59.614Z,-2.23
2022-12-18T14:31:29.209Z,-2.39
2022-12-18T14:33:56.228Z,-2.33
2022-12-18T14:36:25.780Z,-2.17
2022-12-18T14:39:02.803Z,-2.07
2022-12-18T14:41:29.771Z,-2.18
2022-12-18T14:43:56.455Z,-1.98
2022-12-18T14:46:48.176Z,-2.02
2022-12-18T14:49:34.872Z,-1.89
2022-12-18T14:52:06.283Z,-1.82
2022-12-18T14:54:36.142Z,-1.79
2022-12-18T14:57:24.463Z,-1.71
2022-12-18T14:59:51.779Z,-1.63
2022-12-18T15:02:24.376Z,-1.62
2022-12-18T15:05:17.106Z,-1.43
2022-12-18T15:07:48.009Z,-1.50
2022-12-18T15:10:17.795Z,-1.49
2022-12-18T15:13:04.643Z,-1.51
2022-12-18T15:15:34.721Z,-1.39
2022-12-18T15:18:09.399Z,-1.52
2022-12-18T15:20:56.223Z,-1.52
2022-12-18T15:23:28.997Z,-1.44
2022-12-18T15:25:58.792Z,-1.41
2022-12-18T15:28:34.593Z,-1.44
2022-12-18T15:31:15.877Z,-1.42
2022-12-18T15:33:53.928Z,-1.33
2022-12-18T15:36:26.087Z,-1.38
2022-12-18T15:38:55.503Z,-1.40
2022-12-18T15:41:33.861Z,-1.32
2022-12-18T15:44:03.828Z,-1.38
2022-12-18T15:46:31.886Z,-1.41
2022-12-18T15:49:02.314Z,-1.65
2022-12-18T15:51:31.891Z,-1.79
2022-12-18T15:54:00.864Z,-1.74
2022-12-18T15:56:46.234Z,-1.64
2022-12-18T15:59:15.839Z,-1.68
2022-12-18T16:01:44.330Z,-1.69
2022-12-18T16:04:14.128Z,-1.67
2022-12-18T16:07:12.763Z,-1.70
2022-12-18T16:09:27.857Z,-1.69
2022-12-18T16:11:54.454Z,-1.68
2022-12-18T16:14:24.682Z,-1.61
2022-12-18T16:16:54.458Z,-1.60
2022-12-18T16:19:22.287Z,-1.55
2022-12-18T16:21:50.426Z,-1.60
2022-12-18T16:24:24.883Z,-1.62
2022-12-18T16:26:52.749Z,-1.54
2022-12-18T16:29:20.458Z,-1.61
2022-12-18T16:31:47.055Z,-1.70
2022-12-18T16:34:32.893Z,-1.64
2022-12-18T16:37:06.010Z,-1.56
2022-12-18T16:39:36.672Z,-1.61
2022-12-18T16:42:20.533Z,-1.57
2022-12-18T16:44:48.746Z,-1.55
2022-12-18T16:47:15.632Z,-1.58
2022-12-18T16:49:43.404Z,-1.62
2022-12-18T16:52:09.992Z,-1.57
2022-12-18T16:54:36.853Z,-1.54
2022-12-18T16:57:05.321Z,-1.53
2022-12-18T16:59:34.870Z,-1.54
2022-12-18T17:02:02.012Z,-1.43
2022-12-18T17:04:28.666Z,-1.41
2022-12-18T17:06:55.272Z,-1.29
2022-12-18T17:09:24.860Z,-1.35
2022-12-18T17:11:51.812Z,-1.32
2022-12-18T17:14:20.618Z,-1.25
2022-12-18T17:16:49.172Z,-1.25
2022-12-18T17:19:17.926Z,-1.25
2022-12-18T17:21:45.478Z,-1.19
2022-12-18T17:24:12.225Z,-1.14
2022-12-18T17:26:39.011Z,-1.14
2022-12-18T17:29:05.667Z,-1.06
2022-12-18T17:31:32.511Z,-1.14
2022-12-18T17:34:02.146Z,-1.17
2022-12-18T17:36:29.020Z,-1.20
2022-12-18T17:38:57.470Z,-1.17
2022-12-18T17:41:24.866Z,-1.12
2022-12-18T17:43:53.045Z,-1.16
2022-12-18T17:46:19.954Z,-1.11
2022-12-18T17:48:46.640Z,-1.15
2022-12-18T17:51:14.108Z,-1.12
2022-12-18T17:53:41.770Z,-1.20
2022-12-18T17:56:11.604Z,-1.18
2022-12-18T17:58:38.504Z,-1.10
2022-12-18T18:01:06.752Z,-1.10
2022-12-18T18:03:34.411Z,-1.18
2022-12-18T18:06:02.185Z,-1.17
2022-12-18T18:08:28.868Z,-1.16
2022-12-18T18:11:15.996Z,-1.19
2022-12-18T18:14:00.716Z,-1.14
2022-12-18T18:16:34.082Z,-1.19
2022-12-18T18:19:02.885Z,-1.16
2022-12-18T18:21:29.907Z,-1.15
2022-12-18T18:24:00.860Z,-1.14
2022-12-18T18:26:29.341Z,-1.05
2022-12-18T18:28:57.548Z,-1.06
2022-12-18T18:31:24.767Z,-1.12
2022-12-18T18:33:51.713Z,-1.17
2022-12-18T18:36:18.260Z,-1.19
2022-12-18T18:38:48.354Z,-1.17
2022-12-18T18:41:15.890Z,-1.12
2022-12-18T18:43:42.803Z,-1.20
2022-12-18T18:46:11.557Z,-1.18
2022-12-18T18:48:40.152Z,-1.12
2022-12-18T18:51:11.737Z,-1.14
2022-12-18T18:53:43.622Z,-1.18
2022-12-18T18:58:59.846Z,-1.23
2022-12-18T19:01:27.151Z,-1.14
2022-12-18T19:03:54.402Z,-1.03
2022-12-18T19:06:26.432Z,-1.07
2022-12-18T19:08:54.755Z,-1.14
2022-12-18T19:11:41.347Z,-1.08
2022-12-18T19:14:09.992Z,-1.10
2022-12-18T19:16:37.109Z,-1.06
2022-12-18T19:19:04.264Z,-1.03
2022-12-18T19:21:34.244Z,-1.07
2022-12-18T19:24:02.733Z,-1.08
2022-12-18T19:26:30.243Z,-0.97
2022-12-18T19:29:08.665Z,-1.05
2022-12-18T19:31:37.175Z,-1.01
2022-12-18T19:34:07.574Z,-0.96
2022-12-18T19:36:37.013Z,-1.03
2022-12-18T19:39:12.565Z,-1.03
2022-12-18T19:41:39.933Z,-1.13
2022-12-18T19:44:08.687Z,-1.06
2022-12-18T19:46:36.270Z,-1.04
2022-12-18T19:49:07.289Z,-1.12
2022-12-18T19:51:34.241Z,-1.11
2022-12-18T19:54:01.900Z,-0.95
2022-12-18T19:56:33.604Z,-1.07
2022-12-18T19:59:01.143Z,-1.04
2022-12-18T20:01:28.581Z,-1.05
2022-12-18T20:03:56.808Z,-1.09
2022-12-18T20:06:31.034Z,-1.15
2022-12-18T20:09:01.188Z,-1.10
2022-12-18T20:11:32.610Z,-1.08
2022-12-18T20:13:59.287Z,-1.16
2022-12-18T20:16:25.878Z,-1.18
2022-12-18T20:18:56.929Z,-1.25
2022-12-18T20:21:23.956Z,-1.29
2022-12-18T20:23:50.626Z,-1.35
2022-12-18T20:26:17.319Z,-1.47
2022-12-18T20:28:43.899Z,-1.66
2022-12-18T20:31:13.847Z,-1.62
2022-12-18T20:33:42.044Z,-1.73
2022-12-18T20:36:14.222Z,-1.82
2022-12-18T20:38:41.899Z,-1.90
2022-12-18T20:41:16.977Z,-1.95
2022-12-18T20:43:44.314Z,-2.01
2022-12-18T20:46:13.927Z,-2.04
2022-12-18T20:48:40.865Z,-2.03
2022-12-18T20:51:09.513Z,-2.15
2022-12-18T20:53:36.706Z,-2.20
2022-12-18T20:56:09.565Z,-2.09
2022-12-18T20:58:36.341Z,-2.22
2022-12-18T21:01:11.608Z,-2.22
2022-12-18T21:03:40.159Z,-2.20
2022-12-18T21:06:07.435Z,-2.25
2022-12-18T21:08:34.384Z,-2.30
2022-12-18T21:11:42.207Z,-2.22
2022-12-18T21:14:17.930Z,-2.25
2022-12-18T21:16:44.959Z,-2.38
2022-12-18T21:19:12.938Z,-2.35
2022-12-18T21:21:40.108Z,-2.38
2022-12-18T21:24:07.737Z,-2.37
2022-12-18T21:26:34.385Z,-2.41
2022-12-18T21:29:03.495Z,-2.46
2022-12-18T21:31:33.082Z,-2.37
2022-12-18T21:34:02.114Z,-2.42
2022-12-18T21:36:30.235Z,-2.48
2022-12-18T21:38:57.657Z,-2.32
2022-12-18T21:41:44.585Z,-2.29
2022-12-18T21:44:13.678Z,-2.31
2022-12-18T21:46:43.177Z,-2.32
2022-12-18T21:49:10.625Z,-2.27
2022-12-18T21:51:37.687Z,-2.39
2022-12-18T21:54:04.544Z,-2.39
2022-12-18T21:56:47.027Z,-2.41
2022-12-18T21:59:18.961Z,-2.29
2022-12-18T22:01:46.828Z,-2.50
2022-12-18T22:04:14.089Z,-2.38
2022-12-18T22:06:42.732Z,-2.36
2022-12-18T22:09:11.056Z,-2.38
2022-12-18T22:11:37.792Z,-2.40
2022-12-18T22:14:04.667Z,-2.46
2022-12-18T22:16:31.252Z,-2.41
2022-12-18T22:18:57.866Z,-2.39
2022-12-18T22:21:29.316Z,-2.50
2022-12-18T22:23:58.166Z,-2.50
2022-12-18T22:26:25.934Z,-2.52
2022-12-18T22:29:11.125Z,-2.44
2022-12-18T22:31:38.149Z,-2.48
2022-12-18T22:34:05.137Z,-2.46
2022-12-18T22:36:40.506Z,-2.50
2022-12-18T22:39:10.077Z,-2.55
2022-12-18T22:41:36.715Z,-2.41
2022-12-18T22:44:03.417Z,-2.46
2022-12-18T22:46:36.942Z,-2.53
2022-12-18T22:49:03.849Z,-2.52
2022-12-18T22:51:30.538Z,-2.54
2022-12-18T22:53:57.236Z,-2.42
2022-12-18T22:56:23.949Z,-2.42
2022-12-18T22:58:51.322Z,-2.39
2022-12-18T23:01:21.640Z,-2.34
2022-12-18T23:03:49.415Z,-2.44
2022-12-18T23:06:16.375Z,-2.39
2022-12-18T23:08:43.564Z,-2.36
2022-12-18T23:11:11.197Z,-2.34
2022-12-18T23:13:38.173Z,-2.31
2022-12-18T23:16:09.943Z,-2.31
2022-12-18T23:18:37.222Z,-2.29
2022-12-18T23:21:11.019Z,-2.31
2022-12-18T23:23:38.589Z,-2.24
2022-12-18T23:26:24.478Z,-2.22
2022-12-18T23:28:52.407Z,-2.19
2022-12-18T23:31:20.390Z,-2.10
2022-12-18T23:33:49.612Z,-2.17
2022-12-18T23:36:17.148Z,-2.11
2022-12-18T23:38:48.377Z,-2.10
2022-12-18T23:41:16.284Z,-2.11
2022-12-18T23:43:43.130Z,-2.05
2022-12-18T23:46:19.588Z,-2.01
2022-12-18T23:48:46.598Z,-1.92
2022-12-18T23:51:14.692Z,-1.98
2022-12-18T23:53:41.532Z,-1.98
2022-12-18T23:56:09.185Z,-2.00
2022-12-18T23:58:36.664Z,-1.97
